Time;durP1;ratioP1;P1;durP2;ratioP2;P2;SDS_P1;SDS_P2;PMS_P1;PMS_P2;Temp;Humidity;BMP_temperature;BMP_pressure;BME280_temperature;BME280_humidity;BME280_pressure;Samples;Min_cycle;Max_cycle;Signal;HPM_P1;HPM_P2
2023/12/04 00:00:08;;;;;;;13.68;8.43;;;;;;;0.28;47.78;101093.69;4951061;28;20516;-77
2023/12/04 00:02:39;;;;;;;15.67;8.93;;;;;;;0.26;48.21;101084.84;4961039;28;20051;-77
2023/12/04 00:05:08;;;;;;;15.40;8.55;;;;;;;0.30;48.13;101081.06;4936183;29;20295;-77
2023/12/04 00:07:36;;;;;;;16.60;8.55;;;;;;;0.30;48.01;101075.69;4936917;28;20110;-77
2023/12/04 00:10:07;;;;;;;16.95;8.35;;;;;;;0.32;47.98;101081.00;4951778;28;20058;-77
2023/12/04 00:12:36;;;;;;;16.05;9.10;;;;;;;0.30;48.20;101059.53;4950034;29;20123;-77
2023/12/04 00:15:05;;;;;;;14.43;8.23;;;;;;;0.34;47.83;101069.25;4947634;28;20047;-77
2023/12/04 00:17:33;;;;;;;15.52;8.93;;;;;;;0.33;48.01;101067.47;4935435;29;20055;-76
2023/12/04 00:20:01;;;;;;;13.02;7.38;;;;;;;0.33;47.83;101056.72;4929840;29;20039;-77
2023/12/04 00:22:29;;;;;;;14.75;8.27;;;;;;;0.33;47.87;101064.78;4935394;29;20242;-76
2023/12/04 00:24:57;;;;;;;14.32;8.15;;;;;;;0.34;47.71;101065.66;4954270;28;20130;-77
2023/12/04 00:27:27;;;;;;;16.42;8.60;;;;;;;0.36;47.69;101061.06;4935824;28;20414;-77
2023/12/04 00:29:55;;;;;;;14.18;8.35;;;;;;;0.34;47.80;101058.47;4938675;29;20051;-77
2023/12/04 00:32:24;;;;;;;12.65;8.75;;;;;;;0.34;47.71;101039.63;4935536;29;20138;-77
2023/12/04 00:34:52;;;;;;;12.43;7.80;;;;;;;0.36;47.77;101044.91;4959140;28;20094;-76
2023/12/04 00:37:20;;;;;;;13.90;7.60;;;;;;;0.37;47.73;101030.53;4933836;28;20601;-77
2023/12/04 00:39:48;;;;;;;14.15;7.63;;;;;;;0.38;47.60;101036.78;4953767;28;20039;-76
2023/12/04 00:42:16;;;;;;;14.73;8.02;;;;;;;0.35;47.83;101029.75;4959430;28;20051;-77
2023/12/04 00:44:45;;;;;;;14.38;8.43;;;;;;;0.39;47.59;101030.47;4956170;28;20118;-77
2023/12/04 00:47:13;;;;;;;13.50;7.45;;;;;;;0.39;47.65;101025.06;4951198;28;20142;-77
2023/12/04 00:49:41;;;;;;;13.48;7.53;;;;;;;0.40;47.66;101026.84;4958330;28;20137;-77
2023/12/04 00:52:09;;;;;;;14.80;8.73;;;;;;;0.38;47.50;101028.72;4952435;28;20105;-77
2023/12/04 00:54:40;;;;;;;13.00;7.47;;;;;;;0.41;47.20;101028.59;4935030;28;20059;-77
2023/12/04 00:57:08;;;;;;;12.00;7.20;;;;;;;0.41;47.41;101029.47;4947489;28;20051;-77
2023/12/04 00:59:36;;;;;;;12.85;7.47;;;;;;;0.42;47.38;101030.34;4932846;28;20043;-77
2023/12/04 01:02:06;;;;;;;13.40;7.65;;;;;;;0.43;47.41;101024.03;4953994;28;20461;-77
2023/12/04 01:04:34;;;;;;;12.77;7.30;;;;;;;0.43;47.23;101021.34;4952193;28;20513;-77
2023/12/04 01:07:02;;;;;;;13.25;7.47;;;;;;;0.43;47.25;101021.34;4932143;29;20135;-78
2023/12/04 01:09:30;;;;;;;13.40;8.38;;;;;;;0.43;47.12;101022.22;4952160;28;20035;-77
2023/12/04 01:11:58;;;;;;;14.73;8.05;;;;;;;0.44;47.11;101031.13;4937172;29;20079;-77
2023/12/04 01:14:26;;;;;;;14.27;7.68;;;;;;;0.43;47.24;101022.22;4949534;28;20134;-78
2023/12/04 01:16:54;;;;;;;13.68;8.18;;;;;;;0.43;47.25;101021.34;4931891;29;20110;-77
2023/12/04 01:19:24;;;;;;;13.45;7.90;;;;;;;0.45;46.93;101008.66;4953725;28;20135;-78
2023/12/04 01:21:52;;;;;;;13.65;7.57;;;;;;;0.44;47.03;101004.22;4948527;28;20111;-77
2023/12/04 01:24:21;;;;;;;12.77;7.10;;;;;;;0.44;47.17;100997.00;4948911;28;20500;-77
2023/12/04 01:26:49;;;;;;;13.05;7.40;;;;;;;0.46;46.95;100994.25;4951780;28;20579;-77
2023/12/04 01:29:17;;;;;;;12.48;7.18;;;;;;;0.47;47.13;101004.09;4953384;28;20125;-77
2023/12/04 01:31:45;;;;;;;13.35;7.65;;;;;;;0.45;47.08;101009.53;4929044;29;20110;-77
2023/12/04 01:34:13;;;;;;;12.25;7.38;;;;;;;0.46;47.10;100999.63;4952309;28;20105;-78
2023/12/04 01:36:42;;;;;;;11.88;7.45;;;;;;;0.47;46.63;100987.94;4953700;29;20055;-78
2023/12/04 01:39:10;;;;;;;13.13;7.72;;;;;;;0.46;46.86;100989.75;4939931;28;20051;-78
2023/12/04 01:41:40;;;;;;;12.60;7.03;;;;;;;0.47;46.71;100982.53;4935433;28;20119;-77
2023/12/04 01:44:08;;;;;;;11.88;7.15;;;;;;;0.47;46.74;100993.31;4941071;28;20074;-78
2023/12/04 01:46:38;;;;;;;11.50;7.10;;;;;;;0.47;46.64;100990.63;4938150;28;20111;-78
2023/12/04 01:49:06;;;;;;;11.77;7.22;;;;;;;0.48;46.88;100984.31;4951762;28;20075;-79
2023/12/04 01:51:34;;;;;;;11.10;7.55;;;;;;;0.47;46.60;100983.41;4958549;28;20043;-78
2023/12/04 01:54:06;;;;;;;12.02;7.03;;;;;;;0.49;46.77;100976.16;4946263;29;20058;-78
2023/12/04 01:56:37;;;;;;;12.30;7.15;;;;;;;0.48;46.38;100979.78;4944093;28;20051;-78
2023/12/04 01:59:05;;;;;;;13.63;7.03;;;;;;;0.49;46.70;100969.91;4953105;28;20051;-78
2023/12/04 02:01:33;;;;;;;13.55;7.70;;;;;;;0.49;46.75;100975.28;4955202;28;20146;-78
2023/12/04 02:04:02;;;;;;;12.40;7.30;;;;;;;0.50;46.54;100966.25;4952293;29;20040;-78
2023/12/04 02:06:30;;;;;;;13.55;7.80;;;;;;;0.49;46.57;100961.81;4940131;28;20357;-77
2023/12/04 02:08:59;;;;;;;14.02;7.60;;;;;;;0.48;46.43;100955.56;4931539;29;20091;-78
2023/12/04 02:11:28;;;;;;;12.93;7.38;;;;;;;0.49;46.31;100960.00;4936803;28;20138;-78
2023/12/04 02:13:56;;;;;;;11.90;7.10;;;;;;;0.48;46.38;100958.25;4938256;29;20118;-77
2023/12/04 02:16:28;;;;;;;12.65;7.45;;;;;;;0.49;46.25;100957.31;4940983;29;20458;-77
2023/12/04 02:18:56;;;;;;;11.45;6.80;;;;;;;0.48;46.51;100954.69;4960365;28;20061;-78
2023/12/04 02:21:24;;;;;;;12.32;6.70;;;;;;;0.47;46.60;100961.88;4952085;28;20044;-78
2023/12/04 02:23:53;;;;;;;13.82;7.35;;;;;;;0.48;46.16;100962.75;4939372;28;20051;-77
2023/12/04 02:26:29;;;;;;;11.27;6.63;;;;;;;0.50;46.02;100958.19;4943889;28;20047;-77
2023/12/04 02:29:01;;;;;;;11.70;6.78;;;;;;;0.48;46.01;100952.00;4944482;29;20383;-78
2023/12/04 02:31:30;;;;;;;11.32;6.75;;;;;;;0.46;46.28;100949.34;4938425;29;20126;-78
2023/12/04 02:34:00;;;;;;;11.50;6.63;;;;;;;0.48;46.10;100947.47;4946556;28;20137;-78
2023/12/04 02:36:30;;;;;;;11.52;7.03;;;;;;;0.47;46.38;100940.34;4946447;28;20051;-78
2023/12/04 02:39:00;;;;;;;11.13;6.50;;;;;;;0.45;46.40;100941.34;4942977;28;20054;-78
2023/12/04 02:41:28;;;;;;;13.27;7.50;;;;;;;0.45;46.47;100927.88;4936671;28;20074;-78
2023/12/04 02:43:56;;;;;;;10.65;6.50;;;;;;;0.46;46.20;100935.00;4955942;28;20039;-78
2023/12/04 02:46:24;;;;;;;11.65;7.45;;;;;;;0.45;46.06;100926.06;4936008;29;20051;-77
2023/12/04 02:48:52;;;;;;;12.88;7.70;;;;;;;0.45;46.02;100926.06;4954626;28;20147;-77
2023/12/04 02:51:20;;;;;;;12.55;7.07;;;;;;;0.45;46.06;100915.28;4957820;28;20086;-77
2023/12/04 02:53:48;;;;;;;11.77;6.80;;;;;;;0.45;46.03;100911.72;4955717;28;20102;-77
2023/12/04 02:56:18;;;;;;;11.88;6.88;;;;;;;0.46;45.85;100906.28;4942914;29;20051;-77
2023/12/04 02:58:45;;;;;;;12.23;7.07;;;;;;;0.46;45.99;100900.88;4937006;29;20261;-78
2023/12/04 03:01:13;;;;;;;11.20;6.97;;;;;;;0.46;46.01;100905.41;4937588;29;20110;-78
2023/12/04 03:03:42;;;;;;;11.18;7.15;;;;;;;0.47;45.91;100904.47;4937681;29;20051;-77
2023/12/04 03:06:10;;;;;;;12.27;7.05;;;;;;;0.45;45.86;100895.56;4938706;29;20077;-78
2023/12/04 03:08:38;;;;;;;12.10;7.15;;;;;;;0.47;45.68;100894.56;4936863;29;20146;-78
2023/12/04 03:11:06;;;;;;;12.40;7.20;;;;;;;0.48;45.68;100887.38;4937469;28;20055;-77
2023/12/04 03:13:36;;;;;;;12.25;6.68;;;;;;;0.49;45.58;100890.00;4955477;28;20509;-78
2023/12/04 03:16:04;;;;;;;10.65;6.35;;;;;;;0.49;45.58;100887.31;4962664;28;20043;-77
2023/12/04 03:18:32;;;;;;;10.55;6.88;;;;;;;0.49;45.77;100878.34;4943666;28;20039;-77
2023/12/04 03:21:00;;;;;;;10.77;6.85;;;;;;;0.49;45.97;100881.03;4936962;29;20039;-78
2023/12/04 03:23:28;;;;;;;11.63;6.68;;;;;;;0.49;45.83;100867.56;4958611;28;20501;-78
2023/12/04 03:25:56;;;;;;;13.10;6.75;;;;;;;0.47;45.91;100869.47;4957402;28;20079;-78
2023/12/04 03:28:24;;;;;;;11.48;6.43;;;;;;;0.48;45.63;100871.22;4937520;29;20533;-77
2023/12/04 03:30:54;;;;;;;10.63;6.45;;;;;;;0.49;45.38;100862.19;4935435;28;20044;-77
2023/12/04 03:33:22;;;;;;;10.55;6.53;;;;;;;0.49;45.89;100857.69;4949332;28;20405;-77
2023/12/04 03:35:50;;;;;;;11.50;6.60;;;;;;;0.50;45.74;100858.56;4957233;28;20413;-78
2023/12/04 03:38:18;;;;;;;11.93;6.78;;;;;;;0.50;45.66;100855.88;4946210;28;20480;-78
2023/12/04 03:40:45;;;;;;;10.93;6.53;;;;;;;0.50;45.43;100856.75;4954758;28;20086;-77
2023/12/04 03:43:13;;;;;;;10.70;6.63;;;;;;;0.51;45.41;100854.91;4939635;28;20070;-78
2023/12/04 03:45:41;;;;;;;12.00;7.00;;;;;;;0.50;45.58;100854.06;4951766;28;20074;-78
2023/12/04 03:48:11;;;;;;;10.55;7.55;;;;;;;0.47;45.12;100846.09;4957494;28;20048;-78
2023/12/04 03:50:39;;;;;;;10.52;6.60;;;;;;;0.48;45.35;100842.47;4947701;28;20057;-77
2023/12/04 03:53:07;;;;;;;11.40;6.28;;;;;;;0.49;45.37;100835.25;4953405;28;20039;-78
2023/12/04 03:55:35;;;;;;;12.27;6.47;;;;;;;0.50;45.35;100842.41;4938205;29;20436;-78
2023/12/04 03:58:04;;;;;;;10.32;5.93;;;;;;;0.48;45.38;100834.38;4954131;28;20441;-78
2023/12/04 04:00:32;;;;;;;10.05;6.00;;;;;;;0.48;45.49;100846.97;4941604;29;20082;-78
2023/12/04 04:03:00;;;;;;;10.65;6.97;;;;;;;0.48;45.42;100825.44;4945303;28;20055;-78
2023/12/04 04:05:29;;;;;;;9.50;6.50;;;;;;;0.48;45.17;100833.50;4940111;29;20051;-77
2023/12/04 04:07:58;;;;;;;10.32;6.50;;;;;;;0.47;45.15;100829.06;4949267;28;20454;-77
2023/12/04 04:10:26;;;;;;;9.00;5.90;;;;;;;0.48;44.99;100830.81;4953345;28;20458;-78
2023/12/04 04:12:54;;;;;;;10.85;6.30;;;;;;;0.46;45.15;100822.81;4951004;28;20047;-78
2023/12/04 04:15:22;;;;;;;11.27;6.07;;;;;;;0.49;44.94;100822.69;4938927;28;20134;-77
2023/12/04 04:17:50;;;;;;;10.35;6.22;;;;;;;0.48;45.00;100820.94;4944094;28;20043;-78
2023/12/04 04:20:18;;;;;;;9.25;5.38;;;;;;;0.49;45.15;100819.97;4939439;28;20043;-78
2023/12/04 04:22:48;;;;;;;10.65;6.00;;;;;;;0.52;44.64;100817.13;4958967;28;20753;-78
2023/12/04 04:25:16;;;;;;;9.50;6.15;;;;;;;0.50;44.97;100818.16;4936486;29;20102;-77
2023/12/04 04:27:44;;;;;;;10.65;6.32;;;;;;;0.49;44.88;100806.53;4950092;28;20043;-78
2023/12/04 04:30:14;;;;;;;10.20;6.35;;;;;;;0.49;44.75;100805.66;4956328;28;20059;-78
2023/12/04 04:32:42;;;;;;;10.65;6.47;;;;;;;0.49;44.93;100806.53;4936203;29;20157;-78
2023/12/04 04:35:10;;;;;;;9.60;5.82;;;;;;;0.49;44.74;100801.13;4956556;28;20070;-77
2023/12/04 04:37:38;;;;;;;11.90;6.78;;;;;;;0.47;44.66;100800.31;4953564;28;20055;-78
2023/12/04 04:40:12;;;;;;;10.38;6.35;;;;;;;0.50;44.42;100792.13;4935806;29;20043;-77
2023/12/04 04:42:39;;;;;;;11.43;6.45;;;;;;;0.49;44.85;100800.25;4937723;29;20126;-77
2023/12/04 04:45:08;;;;;;;10.23;6.55;;;;;;;0.49;44.59;100801.13;4936391;29;20043;-77
2023/12/04 04:47:36;;;;;;;9.80;5.90;;;;;;;0.50;44.64;100797.50;4955742;28;20126;-78
2023/12/04 04:50:04;;;;;;;11.90;5.85;;;;;;;0.52;44.77;100802.81;4957269;28;20517;-77
2023/12/04 04:52:32;;;;;;;10.70;5.75;;;;;;;0.51;44.78;100806.47;4939923;29;20066;-78
2023/12/04 04:55:00;;;;;;;9.95;5.85;;;;;;;0.51;44.62;100795.69;4958131;28;20547;-78
2023/12/04 04:57:30;;;;;;;9.05;5.68;;;;;;;0.52;44.33;100800.13;4954153;28;20039;-78
2023/12/04 04:59:58;;;;;;;10.95;6.18;;;;;;;0.50;44.89;100807.41;4952900;28;20040;-78
2023/12/04 05:02:26;;;;;;;10.68;6.55;;;;;;;0.50;44.46;100805.59;4938283;28;20043;-77
2023/12/04 05:04:54;;;;;;;10.88;6.10;;;;;;;0.51;44.62;100799.25;4954308;28;20126;-78
2023/12/04 05:07:22;;;;;;;10.50;6.00;;;;;;;0.51;44.63;100799.25;4953037;28;20043;-77
2023/12/04 05:09:50;;;;;;;12.00;6.85;;;;;;;0.52;44.76;100794.75;4938449;28;20483;-77
2023/12/04 05:12:18;;;;;;;11.68;6.88;;;;;;;0.53;44.60;100794.66;4954193;28;20116;-77
2023/12/04 05:14:47;;;;;;;11.35;6.60;;;;;;;0.54;44.44;100792.81;4948712;28;20170;-78
2023/12/04 05:17:15;;;;;;;12.15;6.85;;;;;;;0.53;44.44;100786.56;4941266;28;20535;-78
2023/12/04 05:19:43;;;;;;;11.07;7.28;;;;;;;0.51;44.40;100785.78;4950089;28;20416;-77
2023/12/04 05:22:11;;;;;;;12.00;6.43;;;;;;;0.52;44.40;100778.59;4962150;28;20035;-78
2023/12/04 05:24:39;;;;;;;13.05;7.47;;;;;;;0.51;44.62;100779.53;4937255;29;20070;-78
2023/12/04 05:27:07;;;;;;;11.57;6.97;;;;;;;0.51;44.48;100779.53;4940391;29;20106;-77
2023/12/04 05:29:34;;;;;;;11.07;7.15;;;;;;;0.48;44.47;100782.34;4952539;28;20089;-77
2023/12/04 05:32:04;;;;;;;12.20;7.72;;;;;;;0.44;44.11;100770.84;4937251;29;20484;-78
2023/12/04 05:34:32;;;;;;;11.65;7.57;;;;;;;0.46;44.34;100768.09;4943101;28;20102;-78
2023/12/04 05:37:00;;;;;;;13.75;7.93;;;;;;;0.46;44.34;100763.56;4934028;29;20509;-77
2023/12/04 05:39:28;;;;;;;11.40;7.00;;;;;;;0.47;44.51;100761.75;4952101;28;20042;-77
2023/12/04 05:41:56;;;;;;;12.10;7.38;;;;;;;0.47;44.63;100767.13;4951989;28;20059;-78
2023/12/04 05:44:24;;;;;;;12.77;7.50;;;;;;;0.47;44.60;100770.72;4951734;28;20098;-77
2023/12/04 05:46:52;;;;;;;10.68;6.93;;;;;;;0.47;44.50;100768.00;4954904;28;20070;-77
2023/12/04 05:49:21;;;;;;;11.90;6.93;;;;;;;0.47;44.51;100767.13;4932383;28;20134;-78
2023/12/04 05:51:49;;;;;;;12.23;7.60;;;;;;;0.47;44.55;100769.84;4933020;28;20047;-73
2023/12/04 05:54:17;;;;;;;10.95;6.65;;;;;;;0.47;44.41;100764.44;4958009;28;20505;-77
2023/12/04 05:56:45;;;;;;;13.63;7.32;;;;;;;0.47;44.66;100770.72;4954791;28;20102;-78
2023/12/04 05:59:13;;;;;;;13.25;7.05;;;;;;;0.46;44.63;100758.19;4955626;28;20126;-78
2023/12/04 06:01:41;;;;;;;12.13;7.22;;;;;;;0.47;44.60;100759.94;4941394;28;20513;-78
2023/12/04 06:04:09;;;;;;;12.60;7.53;;;;;;;0.48;44.64;100760.81;4937583;29;20071;-78
2023/12/04 06:06:38;;;;;;;11.07;7.53;;;;;;;0.48;44.41;100752.75;4956391;28;20103;-79
2023/12/04 06:09:06;;;;;;;12.00;7.25;;;;;;;0.48;44.51;100756.31;4935740;29;20420;-78
2023/12/04 06:11:34;;;;;;;13.70;8.25;;;;;;;0.46;44.59;100744.72;4953596;28;20079;-78
2023/12/04 06:14:02;;;;;;;14.30;8.02;;;;;;;0.46;44.55;100735.78;4942004;29;20079;-78
2023/12/04 06:16:30;;;;;;;12.93;7.47;;;;;;;0.45;44.52;100740.28;4939509;29;20046;-78
2023/12/04 06:18:58;;;;;;;12.85;8.10;;;;;;;0.44;44.51;100740.34;4938202;28;20142;-77
2023/12/04 06:21:26;;;;;;;14.43;8.13;;;;;;;0.45;44.30;100742.09;4943296;28;20042;-77
2023/12/04 06:23:56;;;;;;;12.95;8.02;;;;;;;0.44;44.33;100735.84;4953554;28;20059;-78
2023/12/04 06:26:24;;;;;;;12.02;7.85;;;;;;;0.40;44.34;100744.16;4937479;28;20071;-78
2023/12/04 06:28:53;;;;;;;12.57;8.10;;;;;;;0.42;44.55;100728.81;4940271;28;20500;-78
2023/12/04 06:31:21;;;;;;;13.75;8.48;;;;;;;0.43;44.51;100730.56;4917951;28;1083664;-78
2023/12/04 06:33:49;;;;;;;12.05;7.07;;;;;;;0.43;44.39;100717.09;4956717;28;20074;-79
2023/12/04 06:36:18;;;;;;;11.48;7.18;;;;;;;0.43;44.63;100709.91;4938531;29;20047;-78
2023/12/04 06:38:48;;;;;;;14.55;8.25;;;;;;;0.43;44.27;100700.94;4957229;28;20581;-78
2023/12/04 06:41:18;;;;;;;13.90;7.90;;;;;;;0.44;44.30;100697.28;4957074;28;20139;-78
2023/12/04 06:43:47;;;;;;;13.30;7.63;;;;;;;0.43;44.45;100692.88;4957770;28;20070;-78
2023/12/04 06:46:21;;;;;;;14.80;8.55;;;;;;;0.41;44.37;100675.91;4942736;29;20053;-79
2023/12/04 06:48:55;;;;;;;14.88;8.18;;;;;;;0.41;44.30;100663.31;4956620;28;20047;-77
2023/12/04 06:51:23;;;;;;;14.63;8.90;;;;;;;0.38;44.55;100662.56;4940009;29;20047;-78
2023/12/04 06:53:51;;;;;;;14.93;8.55;;;;;;;0.39;44.38;100658.94;4955949;28;20078;-78
2023/12/04 06:56:20;;;;;;;15.80;9.38;;;;;;;0.38;44.11;100654.50;4938376;28;20043;-78
2023/12/04 06:58:48;;;;;;;12.95;8.50;;;;;;;0.36;44.35;100649.19;4939431;28;20412;-78
2023/12/04 07:01:16;;;;;;;13.15;7.85;;;;;;;0.35;44.24;100642.09;4959190;28;20039;-77
2023/12/04 07:03:44;;;;;;;13.85;7.78;;;;;;;0.35;44.42;100640.25;4953292;29;20464;-78
2023/12/04 07:06:14;;;;;;;12.30;8.18;;;;;;;0.36;44.48;100630.34;4943023;29;20051;-78
2023/12/04 07:08:42;;;;;;;13.25;8.38;;;;;;;0.35;44.43;100637.53;4954644;28;20047;-78
2023/12/04 07:11:10;;;;;;;14.23;8.43;;;;;;;0.35;44.35;100628.63;4959108;28;20051;-77
2023/12/04 07:13:41;;;;;;;12.73;7.75;;;;;;;0.36;44.07;100631.22;4940600;28;20051;-77
2023/12/04 07:16:10;;;;;;;13.93;8.48;;;;;;;0.34;44.10;100640.34;4953871;28;20098;-78
2023/12/04 07:18:38;;;;;;;12.43;7.82;;;;;;;0.36;44.62;100633.03;4961838;28;20057;-74
2023/12/04 07:21:06;;;;;;;12.15;7.10;;;;;;;0.36;44.35;100639.28;4956255;28;20054;-75
2023/12/04 07:23:34;;;;;;;13.15;7.78;;;;;;;0.37;44.32;100624.03;4940673;28;20047;-77
2023/12/04 07:26:02;;;;;;;13.18;8.10;;;;;;;0.35;44.32;100616.00;4934832;29;20054;-77
2023/12/04 07:28:30;;;;;;;12.05;7.80;;;;;;;0.36;44.32;100614.19;4948395;28;20039;-77
2023/12/04 07:30:59;;;;;;;12.63;8.27;;;;;;;0.37;44.24;100615.94;4935410;28;20048;-77
2023/12/04 07:33:27;;;;;;;12.23;7.78;;;;;;;0.37;44.35;100615.94;5019156;23;20090;-79
2023/12/04 07:35:55;;;;;;;11.30;7.30;;;;;;;0.39;44.34;100619.44;4947084;28;20611;-76
2023/12/04 07:38:23;;;;;;;10.27;6.95;;;;;;;0.40;44.30;100631.09;4944651;28;20075;-79
2023/12/04 07:40:55;;;;;;;12.07;7.10;;;;;;;0.38;44.34;100628.47;4927226;28;20416;-79
2023/12/04 07:43:23;;;;;;;12.60;7.82;;;;;;;0.40;44.21;100636.47;4942147;28;20516;-79
2023/12/04 07:45:51;;;;;;;11.90;7.18;;;;;;;0.41;44.46;100625.63;4924405;28;20138;-77
2023/12/04 07:48:21;;;;;;;11.80;7.28;;;;;;;0.43;44.12;100633.63;4942323;28;20042;-77
2023/12/04 07:50:49;;;;;;;10.65;7.10;;;;;;;0.44;44.38;100619.19;4943719;28;20449;-77
2023/12/04 07:53:17;;;;;;;13.27;7.07;;;;;;;0.47;44.60;100637.91;4931005;28;20469;-77
2023/12/04 07:55:46;;;;;;;11.95;6.97;;;;;;;0.48;44.32;100623.50;4931497;28;20050;-77
2023/12/04 07:58:15;;;;;;;10.68;7.28;;;;;;;0.48;44.25;100632.44;4935336;28;20157;-78
2023/12/04 08:00:43;;;;;;;11.77;6.90;;;;;;;0.51;44.32;100642.22;4930768;29;20058;-78
2023/12/04 08:03:11;;;;;;;11.63;6.72;;;;;;;0.52;44.23;100625.09;4950387;28;20054;-77
2023/12/04 08:05:41;;;;;;;9.85;6.18;;;;;;;0.53;44.16;100625.00;4937210;28;20427;-77
2023/12/04 08:08:08;;;;;;;12.43;7.72;;;;;;;0.51;44.40;100617.97;4943597;28;20091;-77
2023/12/04 08:10:37;;;;;;;9.85;6.65;;;;;;;0.54;44.26;100615.97;4949496;28;20075;-77
2023/12/04 08:13:05;;;;;;;10.93;6.32;;;;;;;0.56;44.40;100621.28;4943033;28;20089;-77
2023/12/04 08:15:32;;;;;;;10.35;6.65;;;;;;;0.57;44.11;100618.53;4946355;28;20031;-77
2023/12/04 08:18:01;;;;;;;9.43;6.05;;;;;;;0.59;44.52;100610.38;4927888;29;20039;-77
2023/12/04 08:20:29;;;;;;;12.23;6.85;;;;;;;0.60;44.01;100622.91;4939199;28;20505;-77
2023/12/04 08:23:08;;;;;;;10.13;6.25;;;;;;;0.61;44.16;100614.72;4935922;28;20054;-77
2023/12/04 08:25:38;;;;;;;9.65;6.28;;;;;;;0.63;44.40;100617.34;4929967;29;20044;-77
2023/12/04 08:28:08;;;;;;;8.95;5.75;;;;;;;0.65;44.28;100616.31;4950425;28;20047;-75
2023/12/04 08:30:37;;;;;;;10.10;6.03;;;;;;;0.66;44.09;100612.69;4920771;28;20054;-78
2023/12/04 08:33:05;;;;;;;8.55;5.53;;;;;;;0.69;43.97;100611.63;4931721;28;20114;-77
2023/12/04 08:35:33;;;;;;;9.40;6.15;;;;;;;0.71;44.03;100607.94;4929645;29;20106;-76
2023/12/04 08:38:01;;;;;;;9.65;5.82;;;;;;;0.74;43.91;100598.81;4932585;28;20142;-76
2023/12/04 08:40:30;;;;;;;8.40;4.82;;;;;;;0.76;43.93;100593.38;4939957;28;20130;-76
2023/12/04 08:42:58;;;;;;;8.90;5.32;;;;;;;0.77;43.98;100595.09;4934144;28;20131;-76
2023/12/04 08:45:26;;;;;;;8.77;5.95;;;;;;;0.77;43.69;100587.00;4934653;28;20078;-76
2023/12/04 08:47:54;;;;;;;9.80;5.90;;;;;;;0.78;43.72;100570.75;4943206;29;20176;-76
2023/12/04 08:50:22;;;;;;;10.77;6.55;;;;;;;0.78;43.75;100576.16;4968430;28;20539;-77
2023/12/04 08:52:50;;;;;;;8.40;5.40;;;;;;;0.81;43.73;100559.84;4934461;29;20135;-76
2023/12/04 08:55:18;;;;;;;9.18;5.93;;;;;;;0.83;43.61;100567.84;4945031;28;20134;-76
2023/12/04 08:57:48;;;;;;;9.63;6.10;;;;;;;0.84;43.30;100565.09;4952831;28;20051;-76
2023/12/04 09:00:16;;;;;;;8.95;6.38;;;;;;;0.79;43.44;100553.66;4953502;29;20078;-76
2023/12/04 09:02:44;;;;;;;9.02;5.55;;;;;;;0.84;43.38;100546.22;4953423;28;20047;-76
2023/12/04 09:05:21;;;;;;;9.93;5.80;;;;;;;0.84;43.35;100548.06;4953117;28;20535;-76
2023/12/04 09:07:49;;;;;;;10.35;5.82;;;;;;;0.86;43.19;100547.00;4923273;29;20059;-76
2023/12/04 09:10:37;;;;;;;9.30;5.63;;;;;;;0.86;43.34;100538.03;4917330;29;20604;-76
2023/12/04 09:13:26;;;;;;;11.05;5.25;;;;;;;0.89;43.19;100544.19;4935886;29;20043;-76
2023/12/04 09:15:54;;;;;;;8.50;5.30;;;;;;;0.91;43.45;100533.34;4948569;28;20040;-75
2023/12/04 09:18:23;;;;;;;8.48;5.25;;;;;;;0.92;43.47;100521.59;4934379;29;20103;-75
2023/12/04 09:20:51;;;;;;;10.18;5.93;;;;;;;0.91;43.18;100520.75;4950380;28;20274;-76
2023/12/04 09:23:19;;;;;;;8.93;5.53;;;;;;;0.94;43.26;100523.25;4933238;28;20091;-76
2023/12/04 09:25:47;;;;;;;8.48;5.70;;;;;;;0.93;43.11;100526.06;4945853;28;20047;-76
2023/12/04 09:28:15;;;;;;;9.60;5.40;;;;;;;0.95;42.97;100532.19;4920649;29;20066;-75
2023/12/04 09:30:44;;;;;;;9.48;6.18;;;;;;;0.95;42.60;100524.13;4952814;29;20043;-76
2023/12/04 09:33:12;;;;;;;9.35;5.43;;;;;;;0.93;42.86;100528.75;4953029;28;20099;-76
2023/12/04 09:35:40;;;;;;;8.10;4.90;;;;;;;0.96;43.12;100523.16;4956274;28;20055;-75
2023/12/04 09:38:08;;;;;;;10.07;5.63;;;;;;;0.97;42.99;100522.22;4957225;28;20073;-75
2023/12/04 09:40:37;;;;;;;8.52;5.50;;;;;;;0.97;42.87;100520.41;4926723;29;20060;-76
2023/12/04 09:43:06;;;;;;;9.73;5.22;;;;;;;1.00;42.81;100519.38;4939549;28;20051;-76
2023/12/04 09:45:35;;;;;;;9.30;6.15;;;;;;;0.98;42.88;100521.28;4954926;29;20122;-75
2023/12/04 09:48:08;;;;;;;8.57;5.00;;;;;;;1.01;42.49;100513.88;4920951;29;20063;-76
2023/12/04 09:50:39;;;;;;;9.93;6.03;;;;;;;0.98;42.79;100505.97;4938586;28;20047;-76
2023/12/04 09:53:11;;;;;;;9.00;5.70;;;;;;;0.99;42.73;100505.03;4956615;28;20126;-75
2023/12/04 09:55:39;;;;;;;8.27;5.35;;;;;;;1.02;42.81;100503.97;4964453;28;20053;-75
2023/12/04 09:58:07;;;;;;;8.45;5.20;;;;;;;1.02;42.96;100482.41;4975514;28;20512;-75
2023/12/04 10:00:35;;;;;;;11.05;6.32;;;;;;;1.00;42.80;100490.59;4967505;28;20047;-75
2023/12/04 10:03:05;;;;;;;8.82;5.43;;;;;;;1.02;42.34;100477.91;4956241;28;20043;-74
2023/12/04 10:05:33;;;;;;;10.00;5.82;;;;;;;1.01;42.64;100481.53;4938683;28;20043;-75
2023/12/04 10:08:01;;;;;;;9.00;5.70;;;;;;;1.03;42.85;100485.03;4937832;29;20583;-75
2023/12/04 10:10:29;;;;;;;9.43;5.75;;;;;;;1.04;42.65;100473.31;4954989;28;20047;-76
2023/12/04 10:12:58;;;;;;;8.88;5.43;;;;;;;1.02;42.73;100464.44;4954944;28;20522;-75
2023/12/04 10:15:26;;;;;;;10.02;5.85;;;;;;;1.02;42.55;100460.84;4946981;29;20050;-75
2023/12/04 10:17:55;;;;;;;8.15;5.28;;;;;;;1.05;42.56;100455.31;4953528;28;20091;-75
2023/12/04 10:20:24;;;;;;;8.68;5.28;;;;;;;1.07;42.47;100448.91;4957224;28;20589;-75
2023/12/04 10:22:54;;;;;;;9.55;5.60;;;;;;;1.08;42.65;100445.25;4949367;28;20130;-76
2023/12/04 10:25:24;;;;;;;9.15;5.28;;;;;;;1.07;42.63;100434.56;4952405;28;20047;-76
2023/12/04 10:27:53;;;;;;;9.70;5.88;;;;;;;1.09;42.75;100436.19;4951774;28;20039;-76
2023/12/04 10:30:27;;;;;;;9.20;5.60;;;;;;;1.13;42.18;100449.50;4938728;29;20051;-76
2023/12/04 10:33:00;;;;;;;9.45;5.32;;;;;;;1.12;42.66;100429.75;4955770;28;20044;-76
2023/12/04 10:35:36;;;;;;;8.55;5.50;;;;;;;1.15;42.38;100437.69;4938003;28;20065;-76
2023/12/04 10:38:05;;;;;;;8.43;5.82;;;;;;;1.14;42.64;100435.94;4955853;28;20039;-76
2023/12/04 10:40:35;;;;;;;9.00;5.75;;;;;;;1.16;42.86;100435.88;4959903;28;20119;-76
2023/12/04 10:43:16;;;;;;;9.55;5.78;;;;;;;1.16;41.69;100425.97;4964431;28;20053;-76
2023/12/04 10:45:45;;;;;;;8.32;5.03;;;;;;;1.17;42.84;100418.75;4955243;28;20047;-75
2023/12/04 10:48:15;;;;;;;9.05;5.38;;;;;;;1.18;42.69;100420.50;4962786;28;20176;-76
2023/12/04 10:50:46;;;;;;;8.95;5.40;;;;;;;1.20;42.76;100413.16;4948369;28;20048;-76
2023/12/04 10:53:16;;;;;;;9.13;5.65;;;;;;;1.19;42.76;100417.69;4921772;29;20075;-76
2023/12/04 10:55:45;;;;;;;8.23;5.68;;;;;;;1.20;43.00;100421.25;4944201;28;20046;-76
2023/12/04 10:58:15;;;;;;;9.50;5.18;;;;;;;1.20;42.47;100414.03;4954621;28;20408;-76
2023/12/04 11:00:46;;;;;;;9.10;5.07;;;;;;;1.21;42.89;100405.00;4950100;28;20080;-76
2023/12/04 11:03:19;;;;;;;10.02;5.75;;;;;;;1.21;42.84;100398.72;4943322;29;20051;-76
2023/12/04 11:05:55;;;;;;;9.88;5.82;;;;;;;1.23;42.37;100391.44;4954438;29;20106;-77
2023/12/04 11:08:24;;;;;;;9.70;5.78;;;;;;;1.21;43.12;100387.94;4948342;29;20043;-77
2023/12/04 11:10:58;;;;;;;8.95;5.53;;;;;;;1.22;42.58;100387.88;4946660;28;20115;-77
2023/12/04 11:13:28;;;;;;;9.65;5.43;;;;;;;1.21;42.79;100383.44;4955552;29;20043;-77
2023/12/04 11:16:01;;;;;;;9.05;5.47;;;;;;;1.20;42.62;100388.91;4955398;29;20046;-77
2023/12/04 11:18:35;;;;;;;10.25;5.78;;;;;;;1.16;42.95;100390.03;4952178;29;20559;-77
2023/12/04 11:21:09;;;;;;;9.90;6.35;;;;;;;1.15;43.00;100385.59;4955175;28;20080;-77
2023/12/04 11:23:37;;;;;;;;;;;;;;;0.89;43.17;100390.63;4937614;29;20094;-77
2023/12/04 11:26:07;;;;;;;9.95;5.85;;;;;;;1.03;43.62;100396.09;4932717;29;19929;-77
2023/12/04 11:28:38;;;;;;;8.68;5.45;;;;;;;1.03;43.58;100385.31;4934860;28;20193;-78
2023/12/04 11:31:08;;;;;;;11.15;5.88;;;;;;;1.04;43.83;100394.28;4920133;28;20098;-78
2023/12/04 11:33:36;;;;;;;9.70;5.97;;;;;;;1.02;43.80;100385.41;4931584;29;20039;-77